sensor_id;sensor_type;location;lat;lon;timestamp;pressure;altitude;pressure_sealevel;temperature;humidity
62072;BME280;48031;48.542;13.232;2023-02-18T00:00:27;98019.56;;;14.34;63.59
62072;BME280;48031;48.542;13.232;2023-02-18T00:04:30;98012.34;;;14.49;62.95
62072;BME280;48031;48.542;13.232;2023-02-18T00:08:32;98009.38;;;14.56;62.37
62072;BME280;48031;48.542;13.232;2023-02-18T00:12:33;98019.44;;;14.19;65.81
62072;BME280;48031;48.542;13.232;2023-02-18T00:16:35;97997.38;;;13.93;68.08
62072;BME280;48031;48.542;13.232;2023-02-18T00:20:38;97998.31;;;14.04;67.40
62072;BME280;48031;48.542;13.232;2023-02-18T00:24:40;97988.78;;;13.80;66.14
62072;BME280;48031;48.542;13.232;2023-02-18T00:28:42;98004.44;;;14.21;64.86
62072;BME280;48031;48.542;13.232;2023-02-18T00:32:44;97988.88;;;14.22;64.45
62072;BME280;48031;48.542;13.232;2023-02-18T00:36:45;98000.38;;;14.24;63.93
62072;BME280;48031;48.542;13.232;2023-02-18T00:40:47;97991.56;;;14.16;63.40
62072;BME280;48031;48.542;13.232;2023-02-18T00:44:49;97998.88;;;14.38;62.37
62072;BME280;48031;48.542;13.232;2023-02-18T00:48:51;97993.41;;;14.38;62.07
62072;BME280;48031;48.542;13.232;2023-02-18T00:52:53;97997.44;;;14.30;62.25
62072;BME280;48031;48.542;13.232;2023-02-18T00:56:55;98003.81;;;14.41;61.66
62072;BME280;48031;48.542;13.232;2023-02-18T01:00:56;97991.94;;;14.25;62.14
62072;BME280;48031;48.542;13.232;2023-02-18T01:04:58;97995.09;;;14.44;61.33
62072;BME280;48031;48.542;13.232;2023-02-18T01:09:00;98007.81;;;14.65;60.69
62072;BME280;48031;48.542;13.232;2023-02-18T01:13:03;98014.25;;;14.49;61.11
62072;BME280;48031;48.542;13.232;2023-02-18T01:17:05;98003.59;;;14.47;61.41
62072;BME280;48031;48.542;13.232;2023-02-18T01:21:07;98001.25;;;14.66;61.15
62072;BME280;48031;48.542;13.232;2023-02-18T01:25:11;97973.06;;;14.61;60.96
62072;BME280;48031;48.542;13.232;2023-02-18T01:29:14;97998.50;;;14.29;61.23
62072;BME280;48031;48.542;13.232;2023-02-18T01:33:16;97991.84;;;14.47;61.06
62072;BME280;48031;48.542;13.232;2023-02-18T01:37:18;97994.25;;;14.43;60.79
62072;BME280;48031;48.542;13.232;2023-02-18T01:41:21;97989.38;;;14.45;61.02
62072;BME280;48031;48.542;13.232;2023-02-18T01:49:36;97993.09;;;14.71;60.67
62072;BME280;48031;48.542;13.232;2023-02-18T01:53:46;97972.19;;;14.92;60.02
62072;BME280;48031;48.542;13.232;2023-02-18T01:57:49;97986.13;;;14.48;60.38
62072;BME280;48031;48.542;13.232;2023-02-18T02:01:51;97975.63;;;14.77;59.79
62072;BME280;48031;48.542;13.232;2023-02-18T02:05:55;97983.19;;;14.60;59.37
62072;BME280;48031;48.542;13.232;2023-02-18T02:09:57;97978.47;;;14.50;59.94
62072;BME280;48031;48.542;13.232;2023-02-18T02:36:08;97978.31;;;14.67;60.64
62072;BME280;48031;48.542;13.232;2023-02-18T02:44:54;97964.47;;;14.84;60.01
62072;BME280;48031;48.542;13.232;2023-02-18T02:49:16;97958.72;;;14.80;60.16
62072;BME280;48031;48.542;13.232;2023-02-18T02:53:26;97960.19;;;14.98;59.98
62072;BME280;48031;48.542;13.232;2023-02-18T03:23:37;97947.81;;;14.85;59.07
62072;BME280;48031;48.542;13.232;2023-02-18T03:27:55;97938.34;;;15.08;58.00
62072;BME280;48031;48.542;13.232;2023-02-18T03:32:02;97939.69;;;15.06;58.33
62072;BME280;48031;48.542;13.232;2023-02-18T03:36:06;97937.03;;;14.59;58.77
62072;BME280;48031;48.542;13.232;2023-02-18T03:40:10;97936.28;;;14.73;58.43
62072;BME280;48031;48.542;13.232;2023-02-18T03:44:12;97945.16;;;14.48;58.95
62072;BME280;48031;48.542;13.232;2023-02-18T03:48:14;97953.13;;;14.60;58.08
62072;BME280;48031;48.542;13.232;2023-02-18T03:52:17;97941.09;;;14.56;58.67
62072;BME280;48031;48.542;13.232;2023-02-18T03:56:20;97940.03;;;14.62;58.42
62072;BME280;48031;48.542;13.232;2023-02-18T04:00:22;97934.94;;;14.81;58.15
62072;BME280;48031;48.542;13.232;2023-02-18T04:04:24;97939.25;;;14.72;58.14
62072;BME280;48031;48.542;13.232;2023-02-18T04:08:26;97948.94;;;14.94;57.52
62072;BME280;48031;48.542;13.232;2023-02-18T04:12:28;97926.25;;;14.94;57.72
62072;BME280;48031;48.542;13.232;2023-02-18T04:16:30;97926.41;;;14.72;58.42
62072;BME280;48031;48.542;13.232;2023-02-18T04:20:32;97933.94;;;14.50;59.24
62072;BME280;48031;48.542;13.232;2023-02-18T04:24:34;97935.44;;;14.73;58.25
62072;BME280;48031;48.542;13.232;2023-02-18T04:28:37;97924.50;;;14.73;58.81
62072;BME280;48031;48.542;13.232;2023-02-18T04:32:39;97924.88;;;14.86;59.06
62072;BME280;48031;48.542;13.232;2023-02-18T04:36:41;97913.81;;;14.66;60.19
62072;BME280;48031;48.542;13.232;2023-02-18T04:40:43;97953.47;;;14.32;61.40
62072;BME280;48031;48.542;13.232;2023-02-18T04:44:45;97927.75;;;14.28;62.57
62072;BME280;48031;48.542;13.232;2023-02-18T04:48:48;97923.00;;;14.45;61.78
62072;BME280;48031;48.542;13.232;2023-02-18T04:52:50;97921.09;;;14.45;61.10
62072;BME280;48031;48.542;13.232;2023-02-18T04:56:52;97931.22;;;14.50;60.63
62072;BME280;48031;48.542;13.232;2023-02-18T05:00:58;97924.28;;;14.79;60.35
62072;BME280;48031;48.542;13.232;2023-02-18T05:05:00;97951.78;;;14.26;60.57
62072;BME280;48031;48.542;13.232;2023-02-18T05:09:03;97925.72;;;14.45;60.13
62072;BME280;48031;48.542;13.232;2023-02-18T05:13:05;97929.69;;;14.32;59.99
62072;BME280;48031;48.542;13.232;2023-02-18T05:17:06;97939.81;;;14.69;59.17
62072;BME280;48031;48.542;13.232;2023-02-18T05:21:08;97922.00;;;14.66;59.26
62072;BME280;48031;48.542;13.232;2023-02-18T05:25:12;97917.13;;;14.73;58.85
62072;BME280;48031;48.542;13.232;2023-02-18T05:29:14;97911.31;;;15.22;57.69
62072;BME280;48031;48.542;13.232;2023-02-18T05:33:16;97920.41;;;14.65;58.69
62072;BME280;48031;48.542;13.232;2023-02-18T05:37:18;97929.63;;;14.54;58.68
62072;BME280;48031;48.542;13.232;2023-02-18T05:41:20;97915.06;;;14.43;59.18
62072;BME280;48031;48.542;13.232;2023-02-18T05:45:21;97916.47;;;14.51;58.61
62072;BME280;48031;48.542;13.232;2023-02-18T05:49:23;97929.19;;;14.35;59.04
62072;BME280;48031;48.542;13.232;2023-02-18T05:53:25;97926.41;;;14.72;58.12
62072;BME280;48031;48.542;13.232;2023-02-18T05:57:27;97937.28;;;14.57;58.42
62072;BME280;48031;48.542;13.232;2023-02-18T06:01:29;97929.09;;;14.62;58.67
62072;BME280;48031;48.542;13.232;2023-02-18T06:05:31;97943.72;;;14.41;58.99
62072;BME280;48031;48.542;13.232;2023-02-18T06:09:33;97935.00;;;14.44;58.99
62072;BME280;48031;48.542;13.232;2023-02-18T06:13:35;97925.19;;;14.43;58.79
62072;BME280;48031;48.542;13.232;2023-02-18T06:17:36;97943.66;;;14.36;58.66
62072;BME280;48031;48.542;13.232;2023-02-18T06:21:38;97946.63;;;14.29;58.71
62072;BME280;48031;48.542;13.232;2023-02-18T06:25:41;97935.50;;;14.83;57.55
62072;BME280;48031;48.542;13.232;2023-02-18T06:29:43;97930.09;;;14.46;58.13
62072;BME280;48031;48.542;13.232;2023-02-18T06:33:44;97934.06;;;14.65;57.63
62072;BME280;48031;48.542;13.232;2023-02-18T06:37:46;97931.75;;;14.47;58.13
62072;BME280;48031;48.542;13.232;2023-02-18T06:41:48;97936.44;;;14.51;57.83
62072;BME280;48031;48.542;13.232;2023-02-18T06:45:50;97959.09;;;14.52;57.93
62072;BME280;48031;48.542;13.232;2023-02-18T06:49:52;97934.91;;;14.34;58.38
62072;BME280;48031;48.542;13.232;2023-02-18T06:53:54;97951.25;;;14.66;57.17
62072;BME280;48031;48.542;13.232;2023-02-18T06:57:56;97932.88;;;14.56;57.64
62072;BME280;48031;48.542;13.232;2023-02-18T07:01:58;97938.00;;;14.94;56.68
62072;BME280;48031;48.542;13.232;2023-02-18T07:06:00;97939.00;;;14.73;57.30
62072;BME280;48031;48.542;13.232;2023-02-18T07:10:02;97931.50;;;15.11;56.46
62072;BME280;48031;48.542;13.232;2023-02-18T07:14:04;97921.00;;;14.82;56.32
62072;BME280;48031;48.542;13.232;2023-02-18T07:18:08;97915.81;;;14.81;56.42
62072;BME280;48031;48.542;13.232;2023-02-18T07:22:10;97929.91;;;15.15;55.58
62072;BME280;48031;48.542;13.232;2023-02-18T07:26:13;97926.03;;;15.11;55.81
62072;BME280;48031;48.542;13.232;2023-02-18T07:30:15;97935.56;;;14.93;55.84
62072;BME280;48031;48.542;13.232;2023-02-18T07:34:17;97934.84;;;15.23;54.67
62072;BME280;48031;48.542;13.232;2023-02-18T07:38:19;97923.06;;;15.22;54.81
62072;BME280;48031;48.542;13.232;2023-02-18T07:42:21;97935.13;;;15.26;54.53
62072;BME280;48031;48.542;13.232;2023-02-18T07:46:23;97930.94;;;15.04;54.37
62072;BME280;48031;48.542;13.232;2023-02-18T07:50:25;97950.59;;;14.95;54.87
62072;BME280;48031;48.542;13.232;2023-02-18T07:54:27;97937.50;;;14.97;54.62
62072;BME280;48031;48.542;13.232;2023-02-18T07:58:32;97929.25;;;15.75;53.96
62072;BME280;48031;48.542;13.232;2023-02-18T08:02:34;97932.66;;;15.25;54.58
62072;BME280;48031;48.542;13.232;2023-02-18T08:06:41;97910.91;;;15.86;53.32
62072;BME280;48031;48.542;13.232;2023-02-18T08:10:45;97925.09;;;15.57;52.92
62072;BME280;48031;48.542;13.232;2023-02-18T08:14:47;97919.94;;;15.76;52.20
62072;BME280;48031;48.542;13.232;2023-02-18T08:18:50;97919.03;;;15.50;52.94
62072;BME280;48031;48.542;13.232;2023-02-18T08:22:53;97919.03;;;15.45;52.45
62072;BME280;48031;48.542;13.232;2023-02-18T08:26:54;97913.81;;;15.44;52.21
62072;BME280;48031;48.542;13.232;2023-02-18T08:31:01;97909.00;;;15.71;52.23
62072;BME280;48031;48.542;13.232;2023-02-18T08:35:04;97905.16;;;15.87;51.90
62072;BME280;48031;48.542;13.232;2023-02-18T08:39:06;97905.44;;;15.65;51.05
62072;BME280;48031;48.542;13.232;2023-02-18T08:43:08;97900.50;;;15.83;51.17
62072;BME280;48031;48.542;13.232;2023-02-18T08:47:10;97923.47;;;15.66;51.19
62072;BME280;48031;48.542;13.232;2023-02-18T08:51:33;97915.28;;;15.97;50.93
62072;BME280;48031;48.542;13.232;2023-02-18T08:55:35;97902.97;;;15.84;50.84
62072;BME280;48031;48.542;13.232;2023-02-18T08:59:38;97898.84;;;16.02;50.31
62072;BME280;48031;48.542;13.232;2023-02-18T09:03:40;97914.19;;;15.83;50.42
62072;BME280;48031;48.542;13.232;2023-02-18T09:07:42;97894.19;;;16.07;50.63
62072;BME280;48031;48.542;13.232;2023-02-18T09:11:44;97899.94;;;16.26;49.70
62072;BME280;48031;48.542;13.232;2023-02-18T09:15:58;97902.59;;;16.61;49.74
62072;BME280;48031;48.542;13.232;2023-02-18T09:20:00;97888.72;;;16.12;50.28
62072;BME280;48031;48.542;13.232;2023-02-18T09:24:02;97882.41;;;16.07;50.53
62072;BME280;48031;48.542;13.232;2023-02-18T09:28:04;97873.28;;;16.52;49.24
62072;BME280;48031;48.542;13.232;2023-02-18T09:32:07;97861.97;;;17.38;47.12
62072;BME280;48031;48.542;13.232;2023-02-18T09:36:09;97860.19;;;17.08;47.18
62072;BME280;48031;48.542;13.232;2023-02-18T09:40:23;97856.84;;;17.99;45.38
62072;BME280;48031;48.542;13.232;2023-02-18T09:44:31;97877.00;;;16.96;46.75
62072;BME280;48031;48.542;13.232;2023-02-18T09:48:36;97856.06;;;17.16;47.52
62072;BME280;48031;48.542;13.232;2023-02-18T09:52:38;97864.03;;;17.51;46.15
62072;BME280;48031;48.542;13.232;2023-02-18T09:56:43;97861.16;;;17.76;46.07
62072;BME280;48031;48.542;13.232;2023-02-18T10:01:11;97850.69;;;17.78;45.06
62072;BME280;48031;48.542;13.232;2023-02-18T10:05:16;97843.66;;;17.96;44.39
62072;BME280;48031;48.542;13.232;2023-02-18T10:09:19;97843.50;;;18.40;42.29
62072;BME280;48031;48.542;13.232;2023-02-18T10:13:28;97830.31;;;18.66;41.89
62072;BME280;48031;48.542;13.232;2023-02-18T10:17:31;97836.53;;;17.95;43.06
62072;BME280;48031;48.542;13.232;2023-02-18T10:21:34;97824.66;;;18.28;43.05
62072;BME280;48031;48.542;13.232;2023-02-18T10:25:42;97834.88;;;17.65;44.33
62072;BME280;48031;48.542;13.232;2023-02-18T10:29:45;97838.78;;;17.15;43.97
62072;BME280;48031;48.542;13.232;2023-02-18T10:47:05;97807.00;;;18.35;41.09
62072;BME280;48031;48.542;13.232;2023-02-18T10:51:21;97807.00;;;18.11;41.23
62072;BME280;48031;48.542;13.232;2023-02-18T10:55:38;97768.13;;;18.46;41.72
62072;BME280;48031;48.542;13.232;2023-02-18T10:59:53;97786.78;;;18.49;41.14
62072;BME280;48031;48.542;13.232;2023-02-18T11:04:14;97798.13;;;17.90;42.45
62072;BME280;48031;48.542;13.232;2023-02-18T11:08:24;97789.69;;;17.48;43.38
62072;BME280;48031;48.542;13.232;2023-02-18T11:17:08;97760.78;;;17.89;42.95
62072;BME280;48031;48.542;13.232;2023-02-18T11:25:27;97773.22;;;17.81;43.16
62072;BME280;48031;48.542;13.232;2023-02-18T11:29:35;97751.78;;;17.55;43.30
62072;BME280;48031;48.542;13.232;2023-02-18T11:34:17;97755.22;;;17.99;42.61
62072;BME280;48031;48.542;13.232;2023-02-18T11:38:19;97750.22;;;18.01;41.90
62072;BME280;48031;48.542;13.232;2023-02-18T11:42:25;97726.41;;;18.39;41.82
62072;BME280;48031;48.542;13.232;2023-02-18T11:46:27;97720.91;;;18.20;42.34
62072;BME280;48031;48.542;13.232;2023-02-18T11:50:31;97720.53;;;18.03;42.12
62072;BME280;48031;48.542;13.232;2023-02-18T11:54:33;97684.88;;;17.74;42.18
62072;BME280;48031;48.542;13.232;2023-02-18T11:58:42;97683.84;;;18.37;41.92
62072;BME280;48031;48.542;13.232;2023-02-18T12:02:46;97682.41;;;18.63;41.24
62072;BME280;48031;48.542;13.232;2023-02-18T12:07:00;97676.09;;;18.20;41.52
62072;BME280;48031;48.542;13.232;2023-02-18T12:11:11;97661.13;;;17.89;42.62
62072;BME280;48031;48.542;13.232;2023-02-18T12:15:21;97669.84;;;18.14;42.07
62072;BME280;48031;48.542;13.232;2023-02-18T12:29:25;97646.88;;;20.59;36.51
62072;BME280;48031;48.542;13.232;2023-02-18T13:13:06;97610.25;;;20.18;37.27
62072;BME280;48031;48.542;13.232;2023-02-18T13:17:10;97581.75;;;19.59;39.07
62072;BME280;48031;48.542;13.232;2023-02-18T13:21:15;97587.09;;;18.91;40.53
62072;BME280;48031;48.542;13.232;2023-02-18T13:25:18;97584.69;;;18.52;40.74
62072;BME280;48031;48.542;13.232;2023-02-18T13:33:38;97584.84;;;18.42;41.62
62072;BME280;48031;48.542;13.232;2023-02-18T13:37:54;97569.25;;;18.18;42.10
62072;BME280;48031;48.542;13.232;2023-02-18T13:42:34;97563.97;;;18.41;43.15
62072;BME280;48031;48.542;13.232;2023-02-18T13:46:55;97577.50;;;18.00;42.82
62072;BME280;48031;48.542;13.232;2023-02-18T13:51:04;97568.03;;;17.87;43.02
62072;BME280;48031;48.542;13.232;2023-02-18T13:55:17;97555.78;;;18.17;42.99
62072;BME280;48031;48.542;13.232;2023-02-18T14:03:49;97557.44;;;17.99;44.06
62072;BME280;48031;48.542;13.232;2023-02-18T14:08:10;97552.81;;;17.95;44.35
62072;BME280;48031;48.542;13.232;2023-02-18T14:25:31;97540.00;;;18.09;43.29
62072;BME280;48031;48.542;13.232;2023-02-18T14:29:33;97517.41;;;17.74;44.09
62072;BME280;48031;48.542;13.232;2023-02-18T14:33:35;97543.44;;;17.53;44.30
62072;BME280;48031;48.542;13.232;2023-02-18T14:37:53;97541.09;;;18.08;43.59
62072;BME280;48031;48.542;13.232;2023-02-18T14:50:38;97542.22;;;17.40;44.89
62072;BME280;48031;48.542;13.232;2023-02-18T14:54:43;97535.09;;;17.39;45.12
62072;BME280;48031;48.542;13.232;2023-02-18T14:58:48;97548.97;;;17.00;45.49
62072;BME280;48031;48.542;13.232;2023-02-18T15:02:54;97550.41;;;17.22;45.14
62072;BME280;48031;48.542;13.232;2023-02-18T15:07:01;97525.06;;;17.30;45.00
62072;BME280;48031;48.542;13.232;2023-02-18T15:11:05;97507.31;;;17.22;45.34
62072;BME280;48031;48.542;13.232;2023-02-18T15:15:13;97528.63;;;17.30;45.13
62072;BME280;48031;48.542;13.232;2023-02-18T15:19:21;97520.88;;;17.14;45.09
62072;BME280;48031;48.542;13.232;2023-02-18T15:23:23;97528.44;;;16.98;44.73
62072;BME280;48031;48.542;13.232;2023-02-18T15:27:32;97510.13;;;17.17;45.46
62072;BME280;48031;48.542;13.232;2023-02-18T15:31:37;97532.13;;;16.88;44.90
62072;BME280;48031;48.542;13.232;2023-02-18T15:35:40;97518.84;;;16.72;45.47
62072;BME280;48031;48.542;13.232;2023-02-18T15:39:42;97512.28;;;16.68;45.54
62072;BME280;48031;48.542;13.232;2023-02-18T15:44:01;97525.50;;;16.89;44.73
62072;BME280;48031;48.542;13.232;2023-02-18T15:48:05;97520.66;;;16.47;45.35
62072;BME280;48031;48.542;13.232;2023-02-18T15:52:07;97518.78;;;16.43;44.64
62072;BME280;48031;48.542;13.232;2023-02-18T15:56:16;97527.72;;;16.87;44.20
62072;BME280;48031;48.542;13.232;2023-02-18T16:00:26;97526.41;;;16.80;43.94
62072;BME280;48031;48.542;13.232;2023-02-18T16:04:32;97534.75;;;16.70;43.77
62072;BME280;48031;48.542;13.232;2023-02-18T16:08:34;97530.75;;;16.18;44.33
62072;BME280;48031;48.542;13.232;2023-02-18T16:12:37;97549.38;;;16.55;43.57
62072;BME280;48031;48.542;13.232;2023-02-18T16:16:39;97531.44;;;16.34;44.05
62072;BME280;48031;48.542;13.232;2023-02-18T16:20:52;97543.34;;;16.53;43.85
62072;BME280;48031;48.542;13.232;2023-02-18T16:24:57;97533.31;;;16.43;44.10
62072;BME280;48031;48.542;13.232;2023-02-18T16:29:11;97555.72;;;16.84;43.97
62072;BME280;48031;48.542;13.232;2023-02-18T16:33:14;97538.53;;;16.40;44.43
62072;BME280;48031;48.542;13.232;2023-02-18T16:37:16;97556.25;;;16.13;45.05
62072;BME280;48031;48.542;13.232;2023-02-18T16:41:37;97544.34;;;16.28;45.48
62072;BME280;48031;48.542;13.232;2023-02-18T16:45:41;97544.41;;;16.62;45.82
62072;BME280;48031;48.542;13.232;2023-02-18T16:49:45;97543.81;;;16.31;47.26
62072;BME280;48031;48.542;13.232;2023-02-18T16:53:47;97561.94;;;16.22;47.79
62072;BME280;48031;48.542;13.232;2023-02-18T16:57:49;97549.88;;;16.23;47.65
62072;BME280;48031;48.542;13.232;2023-02-18T17:01:51;97558.63;;;16.25;47.36
62072;BME280;48031;48.542;13.232;2023-02-18T17:05:53;97564.84;;;16.36;46.90
62072;BME280;48031;48.542;13.232;2023-02-18T17:09:55;97592.19;;;16.02;46.59
62072;BME280;48031;48.542;13.232;2023-02-18T17:13:57;97591.59;;;16.10;46.36
62072;BME280;48031;48.542;13.232;2023-02-18T17:18:00;97575.53;;;16.37;46.00
62072;BME280;48031;48.542;13.232;2023-02-18T17:22:02;97585.00;;;16.11;45.73
62072;BME280;48031;48.542;13.232;2023-02-18T17:26:04;97591.88;;;16.08;46.01
62072;BME280;48031;48.542;13.232;2023-02-18T17:30:11;97596.97;;;16.69;44.73
62072;BME280;48031;48.542;13.232;2023-02-18T17:34:18;97607.94;;;16.25;45.97
62072;BME280;48031;48.542;13.232;2023-02-18T17:38:22;97613.47;;;16.15;45.51
62072;BME280;48031;48.542;13.232;2023-02-18T17:42:24;97611.22;;;16.22;45.62
62072;BME280;48031;48.542;13.232;2023-02-18T17:46:26;97632.22;;;15.93;46.12
62072;BME280;48031;48.542;13.232;2023-02-18T17:50:29;97638.91;;;16.20;45.88
62072;BME280;48031;48.542;13.232;2023-02-18T17:54:31;97626.44;;;15.94;46.15
62072;BME280;48031;48.542;13.232;2023-02-18T17:58:33;97640.31;;;16.13;45.64
62072;BME280;48031;48.542;13.232;2023-02-18T18:02:35;97642.50;;;16.11;45.95
62072;BME280;48031;48.542;13.232;2023-02-18T18:06:36;97651.91;;;15.90;46.42
62072;BME280;48031;48.542;13.232;2023-02-18T18:10:43;97640.84;;;16.20;46.03
62072;BME280;48031;48.542;13.232;2023-02-18T18:14:48;97638.19;;;16.00;46.88
62072;BME280;48031;48.542;13.232;2023-02-18T18:18:51;97649.13;;;16.05;46.01
62072;BME280;48031;48.542;13.232;2023-02-18T18:22:55;97658.63;;;16.17;46.39
62072;BME280;48031;48.542;13.232;2023-02-18T18:26:57;97647.53;;;15.94;46.93
62072;BME280;48031;48.542;13.232;2023-02-18T18:30:59;97669.78;;;15.72;47.21
62072;BME280;48031;48.542;13.232;2023-02-18T18:35:02;97655.59;;;16.24;46.34
62072;BME280;48031;48.542;13.232;2023-02-18T18:39:04;97662.88;;;15.90;46.96
62072;BME280;48031;48.542;13.232;2023-02-18T18:43:15;97658.63;;;16.17;46.79
62072;BME280;48031;48.542;13.232;2023-02-18T18:47:17;97654.34;;;15.96;47.12
62072;BME280;48031;48.542;13.232;2023-02-18T18:51:24;97666.13;;;15.97;47.47
62072;BME280;48031;48.542;13.232;2023-02-18T18:55:30;97666.91;;;16.07;47.30
62072;BME280;48031;48.542;13.232;2023-02-18T18:59:33;97648.94;;;15.86;47.77
62072;BME280;48031;48.542;13.232;2023-02-18T19:03:34;97656.59;;;15.84;47.82
62072;BME280;48031;48.542;13.232;2023-02-18T19:07:38;97648.09;;;15.86;48.09
62072;BME280;48031;48.542;13.232;2023-02-18T19:11:40;97649.69;;;16.02;47.84
62072;BME280;48031;48.542;13.232;2023-02-18T19:15:42;97651.66;;;15.91;48.58
62072;BME280;48031;48.542;13.232;2023-02-18T19:19:44;97644.75;;;16.04;49.16
62072;BME280;48031;48.542;13.232;2023-02-18T19:23:46;97647.53;;;15.89;49.94
62072;BME280;48031;48.542;13.232;2023-02-18T19:27:49;97653.41;;;16.26;49.71
62072;BME280;48031;48.542;13.232;2023-02-18T19:31:51;97670.31;;;15.74;51.02
62072;BME280;48031;48.542;13.232;2023-02-18T19:35:53;97667.09;;;15.57;52.37
62072;BME280;48031;48.542;13.232;2023-02-18T19:39:54;97677.50;;;15.60;52.43
62072;BME280;48031;48.542;13.232;2023-02-18T19:43:56;97672.56;;;15.57;52.93
62072;BME280;48031;48.542;13.232;2023-02-18T19:47:59;97679.09;;;15.61;52.76
62072;BME280;48031;48.542;13.232;2023-02-18T19:52:01;97680.75;;;15.57;53.63
62072;BME280;48031;48.542;13.232;2023-02-18T19:56:05;97690.03;;;15.71;53.75
62072;BME280;48031;48.542;13.232;2023-02-18T20:00:11;97683.78;;;15.60;55.34
62072;BME280;48031;48.542;13.232;2023-02-18T20:04:13;97694.75;;;15.10;55.96
62072;BME280;48031;48.542;13.232;2023-02-18T20:08:15;97695.84;;;15.04;56.27
62072;BME280;48031;48.542;13.232;2023-02-18T20:12:17;97698.84;;;15.17;56.26
62072;BME280;48031;48.542;13.232;2023-02-18T20:16:19;97697.75;;;15.08;56.63
62072;BME280;48031;48.542;13.232;2023-02-18T20:20:21;97690.63;;;15.07;55.78
62072;BME280;48031;48.542;13.232;2023-02-18T20:24:22;97692.84;;;15.15;55.65
62072;BME280;48031;48.542;13.232;2023-02-18T20:28:24;97693.38;;;14.87;56.66
62072;BME280;48031;48.542;13.232;2023-02-18T20:32:26;97696.94;;;14.87;56.60
62072;BME280;48031;48.542;13.232;2023-02-18T20:36:28;97698.56;;;15.09;55.81
62072;BME280;48031;48.542;13.232;2023-02-18T20:40:30;97697.47;;;14.84;56.69
62072;BME280;48031;48.542;13.232;2023-02-18T20:44:32;97708.38;;;14.74;57.87
62072;BME280;48031;48.542;13.232;2023-02-18T20:48:35;97703.75;;;15.05;56.93
62072;BME280;48031;48.542;13.232;2023-02-18T20:52:36;97699.38;;;14.74;58.19
62072;BME280;48031;48.542;13.232;2023-02-18T20:56:38;97707.47;;;14.43;59.03
62072;BME280;48031;48.542;13.232;2023-02-18T21:00:40;97700.41;;;14.47;59.01
62072;BME280;48031;48.542;13.232;2023-02-18T21:04:43;97707.56;;;14.74;58.62
62072;BME280;48031;48.542;13.232;2023-02-18T21:08:47;97710.31;;;14.94;57.99
62072;BME280;48031;48.542;13.232;2023-02-18T21:12:49;97693.06;;;14.63;58.22
62072;BME280;48031;48.542;13.232;2023-02-18T21:16:50;97697.44;;;14.69;57.89
62072;BME280;48031;48.542;13.232;2023-02-18T21:20:52;97690.84;;;14.50;58.53
62072;BME280;48031;48.542;13.232;2023-02-18T21:24:54;97676.41;;;14.60;58.31
62072;BME280;48031;48.542;13.232;2023-02-18T21:28:59;97694.75;;;15.10;57.01
62072;BME280;48031;48.542;13.232;2023-02-18T21:33:02;97696.38;;;14.70;57.59
62072;BME280;48031;48.542;13.232;2023-02-18T21:37:05;97704.56;;;14.75;56.90
62072;BME280;48031;48.542;13.232;2023-02-18T21:41:07;97708.88;;;14.51;57.88
62072;BME280;48031;48.542;13.232;2023-02-18T21:45:10;97694.97;;;14.63;57.50
62072;BME280;48031;48.542;13.232;2023-02-18T21:49:17;97703.19;;;14.68;57.25
62072;BME280;48031;48.542;13.232;2023-02-18T21:53:19;97700.75;;;14.81;57.11
62072;BME280;48031;48.542;13.232;2023-02-18T21:57:20;97704.00;;;14.78;56.90
62072;BME280;48031;48.542;13.232;2023-02-18T22:01:22;97708.63;;;14.63;58.04
62072;BME280;48031;48.542;13.232;2023-02-18T22:05:27;97707.47;;;14.43;58.54
62072;BME280;48031;48.542;13.232;2023-02-18T22:09:31;97719.31;;;14.64;58.49
62072;BME280;48031;48.542;13.232;2023-02-18T22:13:32;97719.84;;;14.66;59.23
62072;BME280;48031;48.542;13.232;2023-02-18T22:17:34;97721.19;;;14.59;59.84
62072;BME280;48031;48.542;13.232;2023-02-18T22:21:36;97713.25;;;14.42;60.37
62072;BME280;48031;48.542;13.232;2023-02-18T22:25:38;97715.19;;;14.72;59.67
62072;BME280;48031;48.542;13.232;2023-02-18T22:29:40;97717.94;;;13.99;63.11
62072;BME280;48031;48.542;13.232;2023-02-18T22:33:42;97723.47;;;14.09;64.52
62072;BME280;48031;48.542;13.232;2023-02-18T22:37:43;97719.84;;;13.99;66.59
62072;BME280;48031;48.542;13.232;2023-02-18T22:41:45;97730.38;;;13.75;67.42
62072;BME280;48031;48.542;13.232;2023-02-18T22:45:47;97724.97;;;13.43;69.63
62072;BME280;48031;48.542;13.232;2023-02-18T22:49:49;97716.53;;;13.08;70.39
62072;BME280;48031;48.542;13.232;2023-02-18T22:53:52;97712.72;;;13.41;70.13
62072;BME280;48031;48.542;13.232;2023-02-18T22:57:54;97723.84;;;13.02;70.27
62072;BME280;48031;48.542;13.232;2023-02-18T23:01:56;97718.19;;;13.46;68.61
62072;BME280;48031;48.542;13.232;2023-02-18T23:06:03;97720.53;;;13.69;68.64
62072;BME280;48031;48.542;13.232;2023-02-18T23:10:05;97723.19;;;13.54;68.13
62072;BME280;48031;48.542;13.232;2023-02-18T23:14:07;97714.88;;;13.39;68.55
62072;BME280;48031;48.542;13.232;2023-02-18T23:18:19;97726.34;;;13.09;69.96
62072;BME280;48031;48.542;13.232;2023-02-18T23:22:25;97726.94;;;13.48;69.92
62072;BME280;48031;48.542;13.232;2023-02-18T23:26:29;97725.59;;;13.13;70.04
62072;BME280;48031;48.542;13.232;2023-02-18T23:30:31;97715.91;;;13.32;69.21
62072;BME280;48031;48.542;13.232;2023-02-18T23:34:34;97714.38;;;13.42;68.47
62072;BME280;48031;48.542;13.232;2023-02-18T23:38:37;97715.41;;;13.36;68.81
62072;BME280;48031;48.542;13.232;2023-02-18T23:42:38;97718.53;;;13.17;69.23
62072;BME280;48031;48.542;13.232;2023-02-18T23:46:41;97702.59;;;13.36;69.35
62072;BME280;48031;48.542;13.232;2023-02-18T23:50:45;97710.69;;;12.94;72.08
62072;BME280;48031;48.542;13.232;2023-02-18T23:54:47;97715.03;;;12.63;74.85